Time;durP1;ratioP1;P1;durP2;ratioP2;P2;SDS_P1;SDS_P2;PMS_P1;PMS_P2;Temp;Humidity;BMP_temperature;BMP_pressure;BME280_temperature;BME280_humidity;BME280_pressure;Samples;Min_cycle;Max_cycle;Signal;HPM_P1;HPM_P2
2022/10/17 00:00:20;;;;;;;3.22;1.67;;;21.90;72.00;;;;;;4956953;28;93491;-81
2022/10/17 00:02:45;;;;;;;3.63;1.80;;;21.80;72.00;;;;;;4959045;28;92626;-80
2022/10/17 00:05:11;;;;;;;2.67;1.40;;;21.80;72.10;;;;;;4955063;28;94270;-81
2022/10/17 00:07:37;;;;;;;2.10;1.25;;;21.80;72.00;;;;;;4958473;28;92131;-82
2022/10/17 00:10:07;;;;;;;2.33;1.60;;;21.80;72.00;;;;;;4958063;28;94425;-81
2022/10/17 00:12:33;;;;;;;1.67;1.40;;;21.80;72.10;;;;;;4957377;28;92970;-81
2022/10/17 00:14:59;;;;;;;2.30;1.52;;;21.80;72.00;;;;;;4956276;28;92436;-81
2022/10/17 00:17:24;;;;;;;2.30;1.60;;;21.80;71.90;;;;;;4953866;28;92162;-81
2022/10/17 00:19:50;;;;;;;2.67;1.52;;;21.80;72.10;;;;;;4955082;28;92508;-81
2022/10/17 00:22:15;;;;;;;2.33;1.40;;;21.80;72.00;;;;;;4958378;28;92542;-81
2022/10/17 00:24:41;;;;;;;2.45;1.52;;;21.80;72.00;;;;;;4957816;28;92516;-80
2022/10/17 00:27:07;;;;;;;2.60;1.38;;;21.80;71.90;;;;;;4959245;28;92508;-81
2022/10/17 00:29:32;;;;;;;2.85;1.65;;;21.80;71.90;;;;;;4953722;28;94681;-81
2022/10/17 00:31:58;;;;;;;2.35;1.52;;;21.80;72.00;;;;;;4956253;28;96557;-82
2022/10/17 00:34:24;;;;;;;2.55;1.48;;;21.80;72.00;;;;;;4955835;28;92020;-81
2022/10/17 00:36:49;;;;;;;3.15;1.60;;;21.80;71.90;;;;;;4955156;28;92407;-81
2022/10/17 00:39:16;;;;;;;1.63;1.10;;;21.80;71.80;;;;;;4953184;28;93602;-81
2022/10/17 00:41:42;;;;;;;2.67;1.42;;;21.80;71.90;;;;;;4957674;28;92877;-82
2022/10/17 00:44:29;;;;;;;2.80;1.60;;;21.80;71.70;;;;;;4957343;28;92554;-81
2022/10/17 00:47:01;;;;;;;3.58;1.65;;;21.80;71.80;;;;;;4954825;28;92005;-81
2022/10/17 00:49:31;;;;;;;2.33;1.40;;;21.80;71.80;;;;;;4955812;28;93304;-81
2022/10/17 00:52:01;;;;;;;2.03;1.58;;;21.80;71.90;;;;;;4956666;28;93017;-81
2022/10/17 00:54:32;;;;;;;3.20;1.50;;;21.80;71.60;;;;;;4955824;28;92955;-81
2022/10/17 00:56:58;;;;;;;2.70;1.40;;;21.70;71.50;;;;;;4954619;28;92020;-81
2022/10/17 00:59:24;;;;;;;2.72;1.48;;;21.70;71.70;;;;;;4956186;28;94770;-81
2022/10/17 01:02:00;;;;;;;5.47;1.80;;;21.80;71.70;;;;;;4949765;28;94410;-81
2022/10/17 01:04:26;;;;;;;2.65;1.50;;;21.70;71.60;;;;;;4958184;28;91975;-82
2022/10/17 01:06:52;;;;;;;3.08;1.23;;;21.70;71.80;;;;;;4960264;28;91969;-81
2022/10/17 01:09:17;;;;;;;2.53;1.55;;;21.70;71.70;;;;;;4954169;28;93649;-81
2022/10/17 01:11:51;;;;;;;2.33;1.30;;;21.70;71.70;;;;;;4957471;28;94613;-81
2022/10/17 01:14:30;;;;;;;2.13;1.20;;;21.70;71.60;;;;;;4957954;28;92407;-81
2022/10/17 01:17:28;;;;;;;1.90;1.10;;;21.70;71.70;;;;;;4955465;28;92008;-81
2022/10/17 01:20:16;;;;;;;2.78;1.38;;;21.70;71.70;;;;;;4954990;28;95149;-81
2022/10/17 01:23:03;;;;;;;4.80;1.50;;;21.70;71.60;;;;;;4956029;28;94880;-81
2022/10/17 01:26:10;;;;;;;4.68;1.50;;;21.60;71.70;;;;;;4955573;28;92245;-81
2022/10/17 01:29:00;;;;;;;2.60;1.45;;;21.60;71.70;;;;;;4956855;28;92866;-81
2022/10/17 01:31:43;;;;;;;2.25;1.55;;;21.70;71.60;;;;;;4970914;28;95829;-81
2022/10/17 01:34:13;;;;;;;1.98;1.38;;;21.60;71.60;;;;;;4955454;28;92893;-81
2022/10/17 01:36:51;;;;;;;1.75;1.20;;;21.60;71.60;;;;;;4957980;28;92542;-81
2022/10/17 01:39:22;;;;;;;2.57;1.40;;;21.70;71.80;;;;;;4955616;28;91590;-81
2022/10/17 01:42:13;;;;;;;3.20;1.55;;;21.60;71.70;;;;;;4956713;28;93513;-81
2022/10/17 01:45:05;;;;;;;1.20;1.10;;;21.60;71.60;;;;;;4956961;28;93024;-81
2022/10/17 01:47:32;;;;;;;2.35;1.60;;;21.70;71.60;;;;;;4904260;28;93353;-81
2022/10/17 01:50:09;;;;;;;2.15;1.50;;;21.70;71.70;;;;;;4905086;28;92515;-81
2022/10/17 01:52:49;;;;;;;2.28;1.60;;;21.60;71.70;;;;;;4905318;28;92936;-81
2022/10/17 01:55:20;;;;;;;2.65;1.60;;;21.60;71.70;;;;;;4906408;28;93150;-81
2022/10/17 01:57:54;;;;;;;4.00;1.48;;;21.60;71.60;;;;;;4905323;28;91965;-81
2022/10/17 02:00:23;;;;;;;3.00;1.20;;;21.60;71.40;;;;;;4905694;28;92254;-81
2022/10/17 02:02:53;;;;;;;2.33;1.33;;;21.60;71.50;;;;;;4904491;28;93496;-81
2022/10/17 02:05:23;;;;;;;3.38;1.40;;;21.60;71.50;;;;;;4905336;28;93790;-81
2022/10/17 02:07:49;;;;;;;2.40;1.30;;;21.60;71.60;;;;;;4905208;28;92735;-81
2022/10/17 02:10:37;;;;;;;1.80;1.17;;;21.70;71.50;;;;;;4906394;28;92266;-81
2022/10/17 02:13:12;;;;;;;2.33;1.40;;;21.60;71.50;;;;;;4903913;28;100427;-81
2022/10/17 02:16:13;;;;;;;3.38;1.48;;;21.70;71.50;;;;;;4907670;28;93297;-81
2022/10/17 02:18:44;;;;;;;2.60;1.40;;;21.60;71.60;;;;;;4909005;28;92444;-81
2022/10/17 02:21:26;;;;;;;2.15;1.40;;;21.60;71.50;;;;;;4909276;28;92571;-81
2022/10/17 02:24:02;;;;;;;1.75;1.08;;;21.60;71.60;;;;;;4915904;28;94581;-82
2022/10/17 02:26:58;;;;;;;1.40;1.10;;;21.60;71.40;;;;;;4955531;28;93972;-81
2022/10/17 02:29:30;;;;;;;2.10;1.17;;;21.60;71.30;;;;;;4898695;28;92580;-81
2022/10/17 02:32:07;;;;;;;2.25;1.50;;;21.60;71.30;;;;;;4900831;28;91770;-81
2022/10/17 02:34:46;;;;;;;1.77;1.25;;;21.60;71.40;;;;;;4896921;28;95145;-81
2022/10/17 02:37:15;;;;;;;3.38;1.38;;;21.60;71.50;;;;;;4896493;28;93258;-81
2022/10/17 02:39:42;;;;;;;3.90;1.60;;;21.60;71.50;;;;;;4897911;28;93857;-81
2022/10/17 02:42:11;;;;;;;2.40;1.33;;;21.60;71.40;;;;;;4897683;28;92620;-81
2022/10/17 02:44:42;;;;;;;2.23;1.50;;;21.60;71.50;;;;;;4896919;28;96115;-81
2022/10/17 02:47:19;;;;;;;2.47;1.45;;;21.60;71.40;;;;;;4896623;28;93988;-81
2022/10/17 02:49:50;;;;;;;2.88;2.00;;;21.60;71.20;;;;;;4894328;28;92001;-81
2022/10/17 02:52:23;;;;;;;1.75;1.10;;;21.60;71.50;;;;;;4897120;28;92441;-81
2022/10/17 02:55:01;;;;;;;2.00;1.52;;;21.50;71.40;;;;;;4895101;28;97347;-81
2022/10/17 02:57:55;;;;;;;2.05;1.30;;;21.60;71.60;;;;;;4897354;28;92066;-81
2022/10/17 03:00:22;;;;;;;2.08;1.27;;;21.60;71.50;;;;;;4895206;28;92871;-81
2022/10/17 03:02:50;;;;;;;2.50;1.27;;;21.50;71.40;;;;;;4897634;28;92655;-81
2022/10/17 03:05:21;;;;;;;1.75;1.20;;;21.50;71.60;;;;;;4899641;28;94445;-81
2022/10/17 03:07:48;;;;;;;2.17;1.40;;;21.60;71.50;;;;;;4914037;28;94845;-81
2022/10/17 03:10:13;;;;;;;1.83;1.10;;;21.50;71.50;;;;;;4916838;28;92441;-81
2022/10/17 03:12:39;;;;;;;2.17;1.40;;;21.50;71.50;;;;;;4915664;28;92538;-81
2022/10/17 03:15:05;;;;;;;1.88;1.20;;;21.50;71.30;;;;;;4914748;28;92591;-81
2022/10/17 03:17:31;;;;;;;1.85;1.33;;;21.50;71.30;;;;;;4915820;28;92756;-81
2022/10/17 03:19:57;;;;;;;1.35;1.05;;;21.50;71.30;;;;;;4915525;28;92719;-81
2022/10/17 03:22:22;;;;;;;2.92;1.30;;;21.50;71.10;;;;;;4917165;28;92189;-81
2022/10/17 03:24:48;;;;;;;2.22;1.55;;;21.50;71.30;;;;;;4914033;28;93652;-81
2022/10/17 03:27:13;;;;;;;1.70;1.45;;;21.50;71.40;;;;;;4914624;28;93474;-81
2022/10/17 03:29:39;;;;;;;2.75;1.33;;;21.50;71.30;;;;;;4917676;28;93750;-80
2022/10/17 03:32:05;;;;;;;1.20;1.10;;;21.50;71.30;;;;;;4915505;28;92620;-80
2022/10/17 03:34:30;;;;;;;1.42;1.15;;;21.50;71.30;;;;;;4916465;28;93201;-81
2022/10/17 03:36:56;;;;;;;2.67;1.35;;;21.50;71.40;;;;;;4930463;28;93083;-81
2022/10/17 03:39:21;;;;;;;2.00;1.40;;;21.50;71.40;;;;;;4959528;28;92090;-81
2022/10/17 03:41:47;;;;;;;2.10;1.13;;;21.50;71.40;;;;;;4957442;28;92535;-82
2022/10/17 03:44:12;;;;;;;1.73;1.20;;;21.50;71.40;;;;;;4958907;28;92500;-82
2022/10/17 03:46:38;;;;;;;1.52;1.10;;;21.50;71.40;;;;;;4960327;28;91574;-80
2022/10/17 03:49:04;;;;;;;2.20;1.30;;;21.50;71.40;;;;;;4957536;28;91979;-82
2022/10/17 03:51:31;;;;;;;2.75;1.45;;;21.50;71.30;;;;;;4958107;28;92544;-81
2022/10/17 03:53:56;;;;;;;1.85;1.25;;;21.50;71.40;;;;;;4959653;28;93672;-81
2022/10/17 03:56:24;;;;;;;3.70;1.48;;;21.50;71.30;;;;;;4955518;28;93841;-81
2022/10/17 03:58:50;;;;;;;2.20;1.20;;;21.50;71.50;;;;;;4955343;28;92366;-81
2022/10/17 04:01:17;;;;;;;1.35;1.00;;;21.50;71.40;;;;;;4957945;28;92451;-81
2022/10/17 04:03:43;;;;;;;1.92;1.20;;;21.40;71.30;;;;;;4957472;28;97245;-81
2022/10/17 04:06:11;;;;;;;1.95;1.05;;;21.40;71.40;;;;;;4956264;28;93248;-81
2022/10/17 04:08:37;;;;;;;1.77;1.15;;;21.40;71.40;;;;;;4956948;28;92091;-81
2022/10/17 04:11:06;;;;;;;1.75;1.13;;;21.40;71.40;;;;;;4957970;28;91690;-81
2022/10/17 04:13:33;;;;;;;1.73;1.03;;;21.40;71.40;;;;;;4956238;28;92610;-81
2022/10/17 04:16:02;;;;;;;1.42;1.33;;;21.50;71.50;;;;;;4958990;28;94794;-81
2022/10/17 04:18:27;;;;;;;1.38;1.10;;;21.40;71.30;;;;;;4957434;28;93602;-82
2022/10/17 04:20:53;;;;;;;1.15;0.95;;;21.40;71.20;;;;;;4954725;28;92458;-81
2022/10/17 04:23:19;;;;;;;2.33;1.25;;;21.40;71.40;;;;;;4957430;28;93679;-81
2022/10/17 04:25:45;;;;;;;1.58;1.20;;;21.40;71.40;;;;;;4956459;28;93133;-81
2022/10/17 04:28:10;;;;;;;2.28;1.25;;;21.40;71.30;;;;;;4956497;28;92402;-81
2022/10/17 04:30:36;;;;;;;1.80;1.23;;;21.40;71.30;;;;;;4955485;28;92870;-82
2022/10/17 04:33:01;;;;;;;2.25;1.30;;;21.40;71.40;;;;;;4955166;28;94107;-82
2022/10/17 04:35:27;;;;;;;1.77;1.20;;;21.40;71.30;;;;;;4954881;28;94473;-82
2022/10/17 04:37:53;;;;;;;1.67;1.10;;;21.40;71.30;;;;;;4955236;28;92104;-80
2022/10/17 04:40:19;;;;;;;1.73;1.40;;;21.40;71.30;;;;;;4948572;28;92528;-81
2022/10/17 04:42:45;;;;;;;1.85;1.17;;;21.40;71.10;;;;;;4956259;28;95008;-81
2022/10/17 04:45:11;;;;;;;1.40;1.20;;;21.40;71.10;;;;;;4954686;28;93692;-81
2022/10/17 04:47:36;;;;;;;1.88;1.42;;;21.40;71.30;;;;;;4955476;28;92410;-81
2022/10/17 04:50:03;;;;;;;1.20;1.10;;;21.40;71.20;;;;;;4955465;28;92041;-81
2022/10/17 04:52:29;;;;;;;1.60;1.15;;;21.40;71.40;;;;;;4954104;28;97031;-82
2022/10/17 04:54:54;;;;;;;2.40;1.52;;;21.30;71.30;;;;;;4956491;28;92708;-81
2022/10/17 04:57:20;;;;;;;2.38;1.38;;;21.40;71.40;;;;;;4940434;28;92705;-81
2022/10/17 04:59:46;;;;;;;1.55;1.30;;;21.40;71.40;;;;;;4956620;28;91256;-81
2022/10/17 05:02:11;;;;;;;1.40;1.25;;;21.30;71.30;;;;;;4956469;28;93193;-81
2022/10/17 05:04:37;;;;;;;1.85;1.10;;;21.40;71.20;;;;;;4957420;28;92727;-82
2022/10/17 05:07:02;;;;;;;1.73;1.20;;;21.30;71.30;;;;;;4956893;28;93487;-81
2022/10/17 05:09:28;;;;;;;2.22;1.17;;;21.40;71.40;;;;;;4955393;28;92432;-81
2022/10/17 05:11:54;;;;;;;1.10;1.00;;;21.40;71.30;;;;;;4956299;28;93103;-82
2022/10/17 05:14:20;;;;;;;1.83;1.25;;;21.40;71.20;;;;;;4953020;28;94122;-81
2022/10/17 05:16:45;;;;;;;1.02;0.93;;;21.30;71.30;;;;;;4955465;28;92054;-81
2022/10/17 05:19:11;;;;;;;1.33;1.10;;;21.40;71.10;;;;;;4953413;28;92319;-81
2022/10/17 05:21:37;;;;;;;1.80;1.20;;;21.40;71.10;;;;;;4956679;28;95132;-82
2022/10/17 05:24:07;;;;;;;1.92;1.10;;;21.30;71.10;;;;;;4937675;28;94581;-81
2022/10/17 05:26:33;;;;;;;1.38;1.20;;;21.30;71.00;;;;;;4955687;28;92559;-81
2022/10/17 05:29:01;;;;;;;1.73;1.15;;;21.40;71.10;;;;;;4957305;28;92151;-81
2022/10/17 05:31:27;;;;;;;1.65;1.20;;;21.30;70.90;;;;;;4955744;28;94334;-81
2022/10/17 05:33:53;;;;;;;1.23;0.95;;;21.40;71.00;;;;;;4957142;28;93900;-82
2022/10/17 05:36:18;;;;;;;2.58;1.50;;;21.40;70.90;;;;;;4955720;28;92825;-80
2022/10/17 05:38:48;;;;;;;1.63;1.10;;;21.40;71.00;;;;;;4957498;28;92905;-81
2022/10/17 05:41:14;;;;;;;1.63;1.13;;;21.30;71.00;;;;;;4955938;28;92553;-81
2022/10/17 05:43:39;;;;;;;1.70;1.23;;;21.40;70.90;;;;;;4953330;28;93276;-81
2022/10/17 05:46:05;;;;;;;1.08;0.98;;;21.30;70.90;;;;;;4956550;28;92503;-82
2022/10/17 05:48:31;;;;;;;1.73;1.13;;;21.40;71.00;;;;;;4956546;28;91988;-81
2022/10/17 05:50:59;;;;;;;1.10;1.00;;;21.40;70.90;;;;;;4957796;28;92790;-82
2022/10/17 05:53:25;;;;;;;1.50;1.20;;;21.40;70.70;;;;;;4961346;28;93033;-81
2022/10/17 05:55:55;;;;;;;2.28;1.40;;;21.40;70.90;;;;;;4959243;28;93357;-81
2022/10/17 05:58:21;;;;;;;2.95;1.40;;;21.30;70.80;;;;;;4959110;28;92690;-81
2022/10/17 06:00:47;;;;;;;1.65;1.10;;;21.30;70.90;;;;;;4959804;28;92566;-81
2022/10/17 06:03:12;;;;;;;1.80;1.42;;;21.40;70.80;;;;;;4960710;28;92780;-81
2022/10/17 06:05:38;;;;;;;1.17;1.08;;;21.40;70.90;;;;;;4958536;28;92480;-82
2022/10/17 06:08:03;;;;;;;1.60;1.15;;;21.40;70.70;;;;;;4961900;28;92910;-81
2022/10/17 06:10:29;;;;;;;1.65;1.20;;;21.40;70.80;;;;;;4951020;28;93472;-81
2022/10/17 06:12:55;;;;;;;1.25;1.02;;;21.40;70.70;;;;;;4964028;28;92188;-80
2022/10/17 06:15:21;;;;;;;3.42;1.42;;;21.50;70.50;;;;;;4959938;28;92404;-81
2022/10/17 06:17:46;;;;;;;3.90;1.42;;;21.50;69.70;;;;;;4959276;28;91954;-81
2022/10/17 06:20:12;;;;;;;3.55;1.80;;;21.50;69.30;;;;;;4957282;28;94095;-81
2022/10/17 06:22:37;;;;;;;5.47;1.73;;;21.70;67.70;;;;;;4954705;28;94225;-81
2022/10/17 06:25:03;;;;;;;3.83;1.67;;;21.90;67.00;;;;;;4958583;28;92524;-81
2022/10/17 06:27:29;;;;;;;1.90;1.30;;;21.90;67.40;;;;;;4966619;28;92501;-82
2022/10/17 06:29:54;;;;;;;3.63;1.58;;;21.80;68.60;;;;;;4957978;28;93056;-83
2022/10/17 06:32:20;;;;;;;3.00;1.40;;;21.80;69.50;;;;;;4963292;28;92714;-81
2022/10/17 06:34:46;;;;;;;2.88;1.50;;;21.70;69.40;;;;;;4955166;28;92568;-81
2022/10/17 06:37:11;;;;;;;12.27;2.50;;;21.60;69.70;;;;;;4961348;28;91458;-82
2022/10/17 06:39:37;;;;;;;3.42;1.38;;;21.70;68.70;;;;;;4956464;28;93261;-80
2022/10/17 06:42:03;;;;;;;5.72;1.65;;;21.70;69.50;;;;;;4961945;28;92839;-81
2022/10/17 06:44:30;;;;;;;7.60;1.80;;;21.60;70.00;;;;;;4958588;28;93553;-80
2022/10/17 06:46:57;;;;;;;2.33;1.60;;;21.60;70.40;;;;;;4958544;28;92661;-81
2022/10/17 06:49:23;;;;;;;4.05;1.63;;;21.50;70.60;;;;;;4960867;28;94155;-82
2022/10/17 06:51:49;;;;;;;2.38;1.90;;;21.50;70.80;;;;;;4958358;28;93467;-83
2022/10/17 06:54:14;;;;;;;4.00;1.50;;;21.50;71.00;;;;;;4960768;28;92675;-83
2022/10/17 06:56:40;;;;;;;3.03;1.52;;;21.50;71.10;;;;;;4958120;28;92481;-80
2022/10/17 06:59:05;;;;;;;5.70;2.05;;;21.50;71.10;;;;;;4955334;28;94537;-80
2022/10/17 07:01:33;;;;;;;2.55;1.67;;;21.60;70.80;;;;;;4955905;28;94075;-82
2022/10/17 07:03:58;;;;;;;2.53;1.52;;;21.60;70.80;;;;;;4956198;28;92127;-81
2022/10/17 07:06:24;;;;;;;4.15;1.55;;;21.70;70.70;;;;;;4959560;28;92333;-82
2022/10/17 07:08:50;;;;;;;8.70;1.83;;;21.60;70.80;;;;;;4956134;28;93530;-81
2022/10/17 07:11:19;;;;;;;2.67;1.65;;;21.60;71.00;;;;;;4900641;28;93624;-81
2022/10/17 07:13:45;;;;;;;3.05;1.58;;;21.60;71.40;;;;;;4957742;28;92035;-81
2022/10/17 07:16:11;;;;;;;9.30;2.40;;;21.60;71.50;;;;;;4956132;28;92486;-81
2022/10/17 07:18:37;;;;;;;15.50;4.68;;;21.70;71.10;;;;;;4958303;28;93659;-82
2022/10/17 07:21:03;;;;;;;24.73;5.72;;;21.60;71.50;;;;;;4953840;28;93158;-81
2022/10/17 07:23:29;;;;;;;37.40;7.00;;;21.70;71.10;;;;;;4954530;28;92593;-81
2022/10/17 07:26:00;;;;;;;27.25;7.05;;;21.80;70.60;;;;;;4956800;28;91717;-81
2022/10/17 07:28:26;;;;;;;39.78;8.95;;;21.80;70.70;;;;;;4953357;28;93747;-81
2022/10/17 07:30:51;;;;;;;44.35;10.75;;;21.70;70.70;;;;;;4954363;28;92807;-80
2022/10/17 07:33:17;;;;;;;34.28;9.27;;;21.70;70.90;;;;;;4955517;28;93430;-81
2022/10/17 07:35:42;;;;;;;38.05;10.13;;;21.70;70.80;;;;;;4953727;28;93287;-81
2022/10/17 07:38:08;;;;;;;39.20;9.95;;;21.70;70.90;;;;;;4956103;28;92560;-81
2022/10/17 07:40:33;;;;;;;35.60;9.55;;;21.70;70.80;;;;;;4958789;28;93629;-81
2022/10/17 07:42:59;;;;;;;36.72;10.23;;;21.70;70.80;;;;;;4955465;28;92695;-81
2022/10/17 07:45:26;;;;;;;35.38;9.63;;;21.70;70.90;;;;;;4957262;28;92670;-81
2022/10/17 07:47:56;;;;;;;35.97;10.32;;;21.70;70.80;;;;;;4955820;28;93109;-81
2022/10/17 07:50:21;;;;;;;41.95;10.98;;;21.60;70.70;;;;;;4955360;28;92850;-80
2022/10/17 07:52:47;;;;;;;29.02;9.70;;;21.70;70.80;;;;;;4958019;28;92579;-80
2022/10/17 07:55:13;;;;;;;33.30;9.30;;;21.70;70.80;;;;;;4959346;28;92229;-81
2022/10/17 07:57:39;;;;;;;26.80;9.52;;;21.60;70.60;;;;;;4953668;28;95538;-81
2022/10/17 08:00:06;;;;;;;31.40;9.02;;;21.70;70.70;;;;;;4954338;28;92919;-81
2022/10/17 08:02:32;;;;;;;28.00;8.98;;;21.60;70.70;;;;;;4954133;28;92125;-81
2022/10/17 08:04:57;;;;;;;34.13;10.05;;;21.70;70.80;;;;;;4954907;28;92624;-81
2022/10/17 08:07:23;;;;;;;29.15;9.27;;;21.60;70.70;;;;;;4955498;28;93986;-82
2022/10/17 08:09:49;;;;;;;28.38;9.15;;;21.70;70.80;;;;;;4959420;28;93065;-81
2022/10/17 08:12:15;;;;;;;34.00;8.93;;;21.60;70.50;;;;;;4954493;28;92846;-81
2022/10/17 08:14:41;;;;;;;25.27;8.65;;;21.70;70.80;;;;;;4952209;28;91611;-81
2022/10/17 08:17:07;;;;;;;28.27;9.65;;;21.60;70.80;;;;;;4955011;28;92656;-81
2022/10/17 08:19:32;;;;;;;28.75;8.20;;;21.60;70.70;;;;;;4957792;28;94506;-81
2022/10/17 08:21:58;;;;;;;27.52;9.18;;;21.60;70.60;;;;;;4952523;28;93360;-81
2022/10/17 08:24:24;;;;;;;32.83;9.73;;;21.60;70.70;;;;;;4958520;28;92495;-81
2022/10/17 08:26:52;;;;;;;28.73;8.55;;;21.60;70.60;;;;;;4956659;28;93580;-81
2022/10/17 08:29:18;;;;;;;30.58;9.38;;;21.60;70.70;;;;;;4955922;28;92811;-81
2022/10/17 08:31:43;;;;;;;31.40;8.98;;;21.60;70.50;;;;;;4954882;28;92476;-81
2022/10/17 08:34:09;;;;;;;27.30;9.63;;;21.60;70.70;;;;;;4958067;28;92383;-81
2022/10/17 08:36:35;;;;;;;28.38;8.95;;;21.60;70.40;;;;;;4954947;28;93622;-81
2022/10/17 08:39:01;;;;;;;26.77;8.73;;;21.60;70.50;;;;;;4955733;28;92896;-81
2022/10/17 08:41:42;;;;;;;27.05;9.05;;;21.60;70.50;;;;;;4955209;28;92232;-81
2022/10/17 08:44:29;;;;;;;27.30;9.05;;;21.60;70.40;;;;;;4955598;28;92429;-81
2022/10/17 08:47:00;;;;;;;25.23;8.45;;;21.60;70.70;;;;;;4953881;28;94162;-81
2022/10/17 08:49:37;;;;;;;25.88;8.90;;;21.60;70.40;;;;;;4954072;28;94128;-81
2022/10/17 08:52:13;;;;;;;26.55;8.73;;;21.60;70.70;;;;;;4955069;28;92617;-81
2022/10/17 08:54:45;;;;;;;28.27;9.05;;;21.60;70.70;;;;;;4954357;28;92169;-80
2022/10/17 08:57:14;;;;;;;21.27;7.68;;;21.60;70.70;;;;;;4955196;28;93700;-81
2022/10/17 08:59:40;;;;;;;25.70;8.77;;;21.60;70.60;;;;;;4956771;28;92828;-81
2022/10/17 09:02:14;;;;;;;25.77;8.98;;;21.60;70.40;;;;;;4955145;28;92790;-81
2022/10/17 09:05:03;;;;;;;27.23;8.90;;;21.60;70.70;;;;;;4956484;28;91485;-81
2022/10/17 09:08:04;;;;;;;23.40;8.40;;;21.60;70.60;;;;;;4954755;28;93631;-81
2022/10/17 09:10:51;;;;;;;23.20;8.48;;;21.60;70.50;;;;;;4904786;28;92522;-81
2022/10/17 09:13:22;;;;;;;28.35;8.38;;;21.60;70.40;;;;;;4905767;28;93566;-81
2022/10/17 09:16:01;;;;;;;23.88;8.48;;;21.60;70.10;;;;;;4905469;28;92968;-81
2022/10/17 09:18:38;;;;;;;27.08;8.13;;;21.60;70.20;;;;;;4905717;28;93579;-81
2022/10/17 09:21:28;;;;;;;22.23;8.10;;;21.60;70.20;;;;;;4905488;28;92193;-81
2022/10/17 09:23:59;;;;;;;21.73;8.43;;;21.60;70.20;;;;;;4848065;29;92410;-81
2022/10/17 09:26:25;;;;;;;26.00;8.45;;;21.60;70.20;;;;;;4849868;29;92510;-81
2022/10/17 09:28:54;;;;;;;25.23;8.25;;;21.60;70.20;;;;;;4848025;29;94234;-81
2022/10/17 09:31:23;;;;;;;26.00;8.15;;;21.60;70.20;;;;;;4849007;29;93175;-81
2022/10/17 09:33:54;;;;;;;21.70;7.87;;;21.60;70.40;;;;;;4850847;29;92178;-81
2022/10/17 09:36:41;;;;;;;21.33;7.82;;;21.60;70.30;;;;;;4848376;29;92757;-81
2022/10/17 09:39:16;;;;;;;23.90;7.90;;;21.60;70.30;;;;;;4848548;29;94375;-81
2022/10/17 09:41:48;;;;;;;22.35;7.85;;;21.60;70.20;;;;;;4848543;29;92772;-81
2022/10/17 09:44:21;;;;;;;23.48;7.82;;;21.60;70.10;;;;;;4849507;29;92663;-81
2022/10/17 09:47:21;;;;;;;25.92;8.65;;;21.60;70.20;;;;;;4851708;28;92627;-81
2022/10/17 09:49:48;;;;;;;23.35;8.30;;;21.60;70.10;;;;;;4868646;28;93798;-80
2022/10/17 09:52:20;;;;;;;21.92;7.50;;;21.60;70.20;;;;;;4868052;28;93323;-81
2022/10/17 09:54:49;;;;;;;23.80;8.07;;;21.60;70.30;;;;;;4867476;28;92297;-81
2022/10/17 09:57:16;;;;;;;24.83;7.78;;;21.60;70.20;;;;;;4868241;28;91770;-81
2022/10/17 09:59:41;;;;;;;23.35;8.52;;;21.60;70.20;;;;;;4866960;28;94291;-81
2022/10/17 10:02:11;;;;;;;19.33;7.45;;;21.60;70.10;;;;;;4948228;28;92926;-81
2022/10/17 10:05:15;;;;;;;19.08;7.10;;;21.60;70.10;;;;;;4955230;28;93779;-81
2022/10/17 10:07:41;;;;;;;18.80;7.38;;;21.60;70.20;;;;;;4954310;28;92097;-81
2022/10/17 10:10:25;;;;;;;21.25;7.65;;;21.60;70.00;;;;;;4954038;28;94218;-81
2022/10/17 10:13:02;;;;;;;22.90;7.28;;;21.60;70.00;;;;;;4955422;28;96647;-80
2022/10/17 10:15:34;;;;;;;19.45;7.43;;;21.60;70.00;;;;;;4954457;28;92039;-81
2022/10/17 10:18:00;;;;;;;17.27;6.78;;;21.60;70.00;;;;;;4955676;28;92146;-80
2022/10/17 10:20:33;;;;;;;21.58;7.82;;;21.60;70.00;;;;;;4954956;28;93536;-81
2022/10/17 10:23:20;;;;;;;21.05;7.00;;;21.50;70.00;;;;;;4955007;28;93278;-80
2022/10/17 10:25:57;;;;;;;17.13;6.40;;;21.50;70.10;;;;;;4954277;28;92338;-82
2022/10/17 10:28:31;;;;;;;16.13;7.32;;;21.60;70.00;;;;;;4956558;28;92762;-82
2022/10/17 10:31:01;;;;;;;16.38;7.10;;;21.50;69.90;;;;;;4957122;28;94665;-81
2022/10/17 10:33:27;;;;;;;;;;;21.50;69.90;;;;;;4958528;28;93102;-82
2022/10/17 10:35:57;;;;;;;16.58;6.90;;;21.50;69.80;;;;;;4959544;28;92473;-82
2022/10/17 10:38:23;;;;;;;;;;;21.50;70.20;;;;;;4960727;28;92430;-82
2022/10/17 10:41:00;;;;;;;17.50;7.80;;;21.50;70.30;;;;;;4956922;28;95284;-82
2022/10/17 10:43:35;;;;;;;17.95;7.05;;;21.50;70.80;;;;;;4956879;28;92854;-81
2022/10/17 10:46:05;;;;;;;17.92;6.35;;;21.50;70.60;;;;;;4955937;28;92348;-81
2022/10/17 10:48:35;;;;;;;18.80;7.65;;;21.50;70.80;;;;;;4958202;28;91850;-81
2022/10/17 10:51:18;;;;;;;13.50;5.88;;;21.50;70.60;;;;;;4959729;28;92559;-81
2022/10/17 10:53:52;;;;;;;22.33;7.93;;;21.60;70.40;;;;;;4955271;28;92668;-81
2022/10/17 10:56:46;;;;;;;17.05;6.20;;;21.60;70.20;;;;;;4958303;28;93366;-81
2022/10/17 10:59:39;;;;;;;16.90;6.32;;;21.80;69.90;;;;;;4884446;28;92343;-81
2022/10/17 11:02:12;;;;;;;21.20;6.85;;;21.70;70.10;;;;;;4888344;28;94063;-81
2022/10/17 11:04:54;;;;;;;16.35;6.38;;;21.70;69.70;;;;;;4889590;28;92941;-81
2022/10/17 11:07:58;;;;;;;15.15;6.68;;;21.70;70.30;;;;;;4889213;28;92662;-80
2022/10/17 11:10:51;;;;;;;16.30;6.07;;;21.70;70.50;;;;;;4832059;29;92664;-82
2022/10/17 11:13:32;;;;;;;15.23;6.53;;;21.60;70.40;;;;;;4833268;29;94882;-81
2022/10/17 11:16:11;;;;;;;16.30;6.82;;;21.60;70.70;;;;;;4831619;29;96559;-82
2022/10/17 11:19:00;;;;;;;16.80;6.20;;;21.70;70.90;;;;;;4832025;29;92250;-81
2022/10/17 11:21:46;;;;;;;;;;;21.70;70.80;;;;;;4831237;29;92222;-82
2022/10/17 11:24:23;;;;;;;16.75;6.53;;;21.80;70.60;;;;;;4832494;29;94685;-80
2022/10/17 11:27:02;;;;;;;14.60;6.30;;;21.70;70.90;;;;;;4831615;29;96536;-81
2022/10/17 11:29:35;;;;;;;13.18;5.88;;;21.70;70.60;;;;;;4833949;29;92404;-82
2022/10/17 11:32:25;;;;;;;13.30;5.85;;;21.70;70.80;;;;;;4833976;29;93026;-81
2022/10/17 11:35:12;;;;;;;10.48;5.70;;;21.70;71.00;;;;;;4832298;29;93618;-82
2022/10/17 11:37:43;;;;;;;11.88;5.30;;;21.70;70.80;;;;;;4818922;29;93989;-82
2022/10/17 11:40:17;;;;;;;14.60;5.40;;;21.80;71.00;;;;;;4822106;29;92599;-81
2022/10/17 11:43:04;;;;;;;10.65;5.57;;;21.70;70.90;;;;;;4823053;29;92111;-82
2022/10/17 11:45:35;;;;;;;15.98;5.95;;;21.70;70.80;;;;;;4821445;29;92691;-81
2022/10/17 11:48:05;;;;;;;13.40;5.82;;;21.70;70.80;;;;;;4905824;28;94172;-81
2022/10/17 11:50:35;;;;;;;15.77;5.43;;;21.70;70.80;;;;;;4907961;28;93237;-80
2022/10/17 11:53:22;;;;;;;16.33;6.32;;;21.90;70.20;;;;;;4907261;28;92595;-79
2022/10/17 11:55:49;;;;;;;19.27;5.30;;;21.90;70.10;;;;;;4907545;28;93796;-80
2022/10/17 11:58:28;;;;;;;10.70;5.20;;;21.90;70.40;;;;;;4907269;28;92761;-80
2022/10/17 12:01:16;;;;;;;15.45;5.40;;;21.80;70.80;;;;;;4907286;28;92348;-80
2022/10/17 12:04:12;;;;;;;17.90;5.25;;;21.80;71.30;;;;;;4906735;28;92409;-81
2022/10/17 12:07:16;;;;;;;16.00;5.63;;;21.80;71.50;;;;;;4907299;28;93406;-80
2022/10/17 12:09:58;;;;;;;13.60;5.45;;;21.80;71.60;;;;;;4907284;28;93078;-80
2022/10/17 12:12:33;;;;;;;15.32;5.80;;;21.80;71.70;;;;;;4907596;28;92506;-80
2022/10/17 12:15:22;;;;;;;10.50;5.90;;;21.80;71.60;;;;;;4935024;28;92453;-81
2022/10/17 12:18:02;;;;;;;15.32;4.82;;;21.80;71.60;;;;;;4951953;28;97905;-80
2022/10/17 12:20:36;;;;;;;15.85;6.30;;;21.90;71.40;;;;;;4955283;28;95644;-80
2022/10/17 12:23:10;;;;;;;17.65;6.15;;;22.00;71.40;;;;;;4955387;28;92405;-80
2022/10/17 12:25:53;;;;;;;15.93;6.45;;;21.90;71.50;;;;;;4955826;28;92809;-81
2022/10/17 12:28:37;;;;;;;18.27;6.00;;;21.90;71.90;;;;;;4955254;28;95043;-80
2022/10/17 12:31:27;;;;;;;18.60;5.90;;;21.80;71.70;;;;;;4957391;28;93302;-81
2022/10/17 12:33:55;;;;;;;11.98;5.55;;;21.70;71.60;;;;;;4944580;28;92540;-81
2022/10/17 12:36:27;;;;;;;20.67;6.65;;;21.70;72.10;;;;;;4944132;28;91818;-81
2022/10/17 12:41:40;;;;;;;12.23;5.28;;;21.60;72.20;;;;;;4944161;28;92816;-80
2022/10/17 12:44:20;;;;;;;13.82;5.90;;;21.60;72.20;;;;;;4943967;28;93338;-81
2022/10/17 12:46:54;;;;;;;12.05;5.25;;;21.60;72.30;;;;;;4945503;28;92583;-81
2022/10/17 12:49:39;;;;;;;13.52;5.65;;;21.60;72.40;;;;;;4944133;28;93628;-81
2022/10/17 12:52:12;;;;;;;14.60;6.50;;;21.60;73.00;;;;;;4945342;28;93220;-81
2022/10/17 12:54:42;;;;;;;16.77;6.28;;;21.50;73.10;;;;;;4944578;28;92553;-81
2022/10/17 12:57:34;;;;;;;15.13;5.18;;;21.60;72.90;;;;;;4944063;28;92859;-81
2022/10/17 13:00:43;;;;;;;14.43;4.55;;;21.60;71.70;;;;;;4942871;28;93358;-82
2022/10/17 13:03:09;;;;;;;;;;;21.60;72.10;;;;;;4889568;28;96642;-79
2022/10/17 13:05:38;;;;;;;17.40;6.38;;;21.60;72.20;;;;;;4928610;28;92638;-81
2022/10/17 13:08:06;;;;;;;16.42;6.65;;;21.50;73.10;;;;;;4933426;28;92703;-81